createdAt,value
2018-07-07T00:00:52.227Z,57.39
2018-07-07T00:03:20.136Z,57.42
2018-07-07T00:05:48.203Z,57.98
2018-07-07T00:08:16.516Z,57.55
2018-07-07T00:10:47.407Z,57.67
2018-07-07T00:13:15.159Z,57.84
2018-07-07T00:15:42.829Z,57.92
2018-07-07T00:18:10.558Z,58.02
2018-07-07T00:20:38.321Z,57.86
2018-07-07T00:23:06.117Z,57.64
2018-07-07T00:25:33.876Z,57.58
2018-07-07T00:28:01.622Z,57.59
2018-07-07T00:30:29.306Z,57.94
2018-07-07T00:32:56.977Z,57.78
2018-07-07T00:35:24.771Z,58.11
2018-07-07T00:37:52.449Z,57.58
2018-07-07T00:40:21.365Z,58.19
2018-07-07T00:42:49.237Z,57.76
2018-07-07T00:45:16.885Z,58.18
2018-07-07T00:47:44.827Z,58.04
2018-07-07T00:50:13.540Z,58.37
2018-07-07T00:52:41.256Z,58.32
2018-07-07T00:55:08.971Z,58.69
2018-07-07T00:57:37.415Z,58.38
2018-07-07T01:00:05.155Z,58.64
2018-07-07T01:02:32.952Z,58.72
2018-07-07T01:05:00.853Z,58.87
2018-07-07T01:07:28.548Z,58.67
2018-07-07T01:09:56.421Z,58.79
2018-07-07T01:12:24.235Z,58.87
2018-07-07T01:14:51.875Z,59.04
2018-07-07T01:17:20.580Z,59.11
2018-07-07T01:19:48.348Z,59.29
2018-07-07T01:22:16.010Z,58.73
2018-07-07T01:24:43.977Z,58.90
2018-07-07T01:27:11.754Z,59.55
2018-07-07T01:29:40.291Z,59.43
2018-07-07T01:32:08.137Z,59.18
2018-07-07T01:34:36.458Z,59.45
2018-07-07T01:37:04.079Z,59.76
2018-07-07T01:39:31.886Z,59.99
2018-07-07T01:41:59.766Z,59.55
2018-07-07T01:44:27.428Z,59.65
2018-07-07T01:46:55.129Z,59.73
2018-07-07T01:49:24.201Z,59.91
2018-07-07T01:51:51.857Z,59.71
2018-07-07T01:54:19.556Z,59.65
2018-07-07T01:56:47.449Z,59.92
2018-07-07T01:59:15.765Z,59.59
2018-07-07T02:01:43.746Z,59.64
2018-07-07T02:04:11.653Z,59.52
2018-07-07T02:06:39.285Z,59.54
2018-07-07T02:09:08.037Z,59.87
2018-07-07T02:11:35.910Z,59.45
2018-07-07T02:14:03.890Z,59.68
2018-07-07T02:16:31.856Z,59.18
2018-07-07T02:18:59.665Z,59.75
2018-07-07T02:21:27.268Z,59.56
2018-07-07T02:23:55.112Z,59.08
2018-07-07T02:26:22.883Z,58.90
2018-07-07T02:28:50.583Z,59.19
2018-07-07T02:31:18.334Z,59.01
2018-07-07T02:33:46.125Z,58.48
2018-07-07T02:36:13.719Z,58.63
2018-07-07T02:38:42.073Z,58.69
2018-07-07T02:41:09.976Z,57.90
2018-07-07T02:43:37.588Z,58.29
2018-07-07T02:46:05.356Z,57.94
2018-07-07T02:48:33.054Z,57.85
2018-07-07T02:51:00.917Z,57.87
2018-07-07T02:53:28.771Z,57.87
2018-07-07T02:55:56.653Z,57.91
2018-07-07T02:58:24.273Z,57.69
2018-07-07T03:00:52.129Z,57.53
2018-07-07T03:03:20.009Z,57.00
2018-07-07T03:05:48.481Z,57.12
2018-07-07T03:08:16.989Z,57.00
2018-07-07T03:10:44.732Z,56.93
2018-07-07T03:13:12.362Z,57.05
2018-07-07T03:15:40.163Z,56.77
2018-07-07T03:18:07.889Z,56.60
2018-07-07T03:20:35.547Z,56.29
2018-07-07T03:23:03.334Z,56.22
2018-07-07T03:25:31.448Z,56.14
2018-07-07T03:27:59.042Z,56.00
2018-07-07T03:30:27.975Z,55.81
2018-07-07T03:32:55.776Z,55.18
2018-07-07T03:35:23.527Z,55.21
2018-07-07T03:37:51.305Z,55.07
2018-07-07T03:40:19.100Z,55.01
2018-07-07T03:42:46.794Z,55.25
2018-07-07T03:45:14.979Z,54.97
2018-07-07T03:47:42.798Z,54.72
2018-07-07T03:50:10.468Z,54.67
2018-07-07T03:52:38.464Z,55.08
2018-07-07T03:55:06.348Z,54.43
2018-07-07T03:57:34.079Z,54.91
2018-07-07T04:00:02.066Z,54.29
2018-07-07T04:02:30.867Z,54.61
2018-07-07T04:04:59.681Z,54.26
2018-07-07T04:07:27.502Z,53.99
2018-07-07T04:09:55.391Z,54.45
2018-07-07T04:12:23.060Z,53.82
2018-07-07T04:14:50.907Z,53.79
2018-07-07T04:17:18.774Z,53.98
2018-07-07T04:19:46.490Z,54.30
2018-07-07T04:22:14.326Z,53.62
2018-07-07T04:24:42.124Z,54.08
2018-07-07T04:27:09.758Z,53.59
2018-07-07T04:29:37.731Z,53.77
2018-07-07T04:32:05.873Z,53.95
2018-07-07T04:34:33.526Z,53.48
2018-07-07T04:37:02.702Z,53.70
2018-07-07T04:39:30.470Z,53.85
2018-07-07T04:41:58.222Z,53.63
2018-07-07T04:44:26.071Z,53.47
2018-07-07T04:46:53.962Z,53.49
2018-07-07T04:49:21.609Z,53.26
2018-07-07T04:51:50.422Z,53.06
2018-07-07T04:54:18.369Z,53.04
2018-07-07T04:56:46.024Z,52.86
2018-07-07T04:59:13.796Z,52.80
2018-07-07T05:01:42.075Z,52.34
2018-07-07T05:04:09.701Z,52.85
2018-07-07T05:06:37.611Z,53.12
2018-07-07T05:09:05.499Z,52.72
2018-07-07T05:11:33.454Z,52.25
2018-07-07T05:14:01.323Z,52.36
2018-07-07T05:16:29.129Z,52.25
2018-07-07T05:18:56.756Z,52.47
2018-07-07T05:21:24.600Z,52.23
2018-07-07T05:23:52.361Z,52.42
2018-07-07T05:26:20.063Z,52.49
2018-07-07T05:28:47.751Z,52.14
2018-07-07T05:31:16.505Z,52.31
2018-07-07T05:33:44.109Z,51.84
2018-07-07T05:36:12.090Z,52.24
2018-07-07T05:38:41.184Z,52.11
2018-07-07T05:41:08.839Z,52.35
2018-07-07T05:43:36.779Z,52.45
2018-07-07T05:46:04.712Z,52.18
2018-07-07T05:48:32.344Z,51.95
2018-07-07T05:51:00.841Z,52.30
2018-07-07T05:53:28.699Z,52.13
2018-07-07T05:55:57.355Z,51.86
2018-07-07T05:58:25.042Z,52.15
2018-07-07T06:00:52.879Z,51.77
2018-07-07T06:03:20.611Z,52.02
2018-07-07T06:05:48.734Z,52.02
2018-07-07T06:08:16.512Z,51.62
2018-07-07T06:10:44.118Z,51.45
2018-07-07T06:13:11.926Z,51.48
2018-07-07T06:15:39.774Z,51.33
2018-07-07T06:18:07.507Z,51.33
2018-07-07T06:20:35.349Z,51.32
2018-07-07T06:23:04.159Z,51.21
2018-07-07T06:25:31.809Z,51.20
2018-07-07T06:28:00.380Z,51.04
2018-07-07T06:30:28.219Z,50.77
2018-07-07T06:32:56.124Z,50.55
2018-07-07T06:35:23.896Z,50.65
2018-07-07T06:37:51.710Z,49.91
2018-07-07T06:40:19.419Z,50.44
2018-07-07T06:42:47.266Z,50.32
2018-07-07T06:45:15.151Z,49.87
2018-07-07T06:47:42.992Z,50.07
2018-07-07T06:50:10.929Z,50.01
2018-07-07T06:52:39.089Z,49.55
2018-07-07T06:55:06.777Z,49.70
2018-07-07T06:57:34.649Z,49.35
2018-07-07T07:00:02.529Z,49.41
2018-07-07T07:02:30.205Z,49.04
2018-07-07T07:04:58.746Z,49.01
2018-07-07T07:07:26.647Z,49.24
2018-07-07T07:09:54.276Z,48.84
2018-07-07T07:12:22.263Z,49.07
2018-07-07T07:14:50.218Z,49.08
2018-07-07T07:17:17.899Z,48.46
2018-07-07T07:19:45.664Z,49.17
2018-07-07T07:22:13.439Z,48.95
2018-07-07T07:24:41.113Z,48.87
2018-07-07T07:27:08.927Z,48.52
2018-07-07T07:29:36.736Z,48.60
2018-07-07T07:32:04.382Z,48.42
2018-07-07T07:34:32.453Z,48.91
2018-07-07T07:37:00.287Z,48.88
2018-07-07T07:39:27.923Z,48.35
2018-07-07T07:41:56.254Z,48.34
2018-07-07T07:44:24.782Z,48.86
2018-07-07T07:46:52.416Z,48.50
2018-07-07T07:49:20.176Z,48.82
2018-07-07T07:51:48.014Z,48.61
2018-07-07T07:54:15.677Z,48.20
2018-07-07T07:56:43.533Z,47.95
2018-07-07T07:59:11.368Z,47.73
2018-07-07T08:01:39.027Z,47.53
2018-07-07T08:04:06.825Z,47.96
2018-07-07T08:06:34.620Z,47.99
2018-07-07T08:09:02.390Z,47.77
2018-07-07T08:11:30.214Z,47.42
2018-07-07T08:13:57.989Z,47.56
2018-07-07T08:16:25.626Z,47.06
2018-07-07T08:18:53.315Z,46.33
2018-07-07T08:21:21.078Z,46.71
2018-07-07T08:23:48.699Z,46.63
2018-07-07T08:26:16.644Z,46.36
2018-07-07T08:28:44.401Z,46.11
2018-07-07T08:31:12.077Z,45.59
2018-07-07T08:33:39.876Z,46.05
2018-07-07T08:36:07.907Z,46.09
2018-07-07T08:38:35.517Z,45.47
2018-07-07T08:41:03.654Z,45.16
2018-07-07T08:43:31.360Z,45.40
2018-07-07T08:45:58.915Z,44.68
2018-07-07T08:48:26.687Z,44.54
2018-07-07T08:50:54.362Z,44.57
2018-07-07T08:53:22.026Z,44.34
2018-07-07T08:55:49.873Z,44.23
2018-07-07T08:58:17.744Z,44.51
2018-07-07T09:00:46.426Z,44.39
2018-07-07T09:03:14.251Z,44.57
2018-07-07T09:05:42.101Z,43.96
2018-07-07T09:08:09.789Z,44.17
2018-07-07T09:10:37.564Z,44.08
2018-07-07T09:13:05.380Z,43.79
2018-07-07T09:15:33.006Z,44.26
2018-07-07T09:18:00.887Z,43.52
2018-07-07T09:20:28.767Z,43.78
2018-07-07T09:22:57.434Z,43.30
2018-07-07T09:25:25.230Z,43.29
2018-07-07T09:27:52.968Z,43.61
2018-07-07T09:30:20.579Z,42.77
2018-07-07T09:32:48.335Z,43.01
2018-07-07T09:35:16.032Z,42.35
2018-07-07T09:37:43.877Z,42.25
2018-07-07T09:40:11.499Z,42.18
2018-07-07T09:42:39.260Z,42.29
2018-07-07T09:45:06.962Z,42.58
2018-07-07T09:47:34.814Z,41.61
2018-07-07T09:50:02.750Z,41.40
2018-07-07T09:52:30.437Z,41.71
2018-07-07T09:54:58.138Z,41.07
2018-07-07T09:57:26.051Z,41.27
2018-07-07T09:59:53.695Z,41.20
2018-07-07T10:02:21.477Z,40.91
2018-07-07T10:04:49.254Z,40.64
2018-07-07T10:07:16.834Z,40.27
2018-07-07T10:09:44.721Z,38.98
2018-07-07T10:12:12.823Z,38.68
2018-07-07T10:14:40.457Z,38.93
2018-07-07T10:17:08.333Z,37.78
2018-07-07T10:19:36.288Z,37.87
2018-07-07T10:22:04.025Z,37.74
2018-07-07T10:24:31.842Z,37.89
2018-07-07T10:26:59.653Z,36.99
2018-07-07T10:29:27.321Z,37.29
2018-07-07T10:31:55.093Z,36.86
2018-07-07T10:34:22.843Z,36.11
2018-07-07T10:36:50.485Z,36.60
2018-07-07T10:39:18.529Z,35.81
2018-07-07T10:41:46.375Z,36.13
2018-07-07T10:44:14.124Z,35.34
2018-07-07T10:46:41.931Z,35.35
2018-07-07T10:49:09.713Z,35.12
2018-07-07T10:51:37.400Z,35.12
2018-07-07T10:54:05.270Z,35.20
2018-07-07T10:56:33.129Z,35.48
2018-07-07T10:59:00.768Z,35.29
2018-07-07T11:01:28.679Z,35.35
2018-07-07T11:03:56.541Z,34.45
2018-07-07T11:06:24.183Z,35.19
2018-07-07T11:08:52.030Z,35.00
2018-07-07T11:11:20.001Z,35.20
2018-07-07T11:13:47.609Z,34.68
2018-07-07T11:16:15.318Z,35.01
2018-07-07T11:18:43.550Z,34.91
2018-07-07T11:21:11.209Z,34.95
2018-07-07T11:23:39.041Z,35.40
2018-07-07T11:26:06.753Z,35.45
2018-07-07T11:28:34.658Z,36.07
2018-07-07T11:31:02.464Z,36.34
2018-07-07T11:33:30.132Z,36.19
2018-07-07T11:35:57.806Z,36.12
2018-07-07T11:38:25.501Z,36.61
2018-07-07T11:40:53.442Z,36.63
2018-07-07T11:43:21.243Z,36.59
2018-07-07T11:45:49.053Z,36.09
2018-07-07T11:48:16.656Z,36.75
2018-07-07T11:50:44.260Z,36.86
2018-07-07T11:53:12.091Z,36.60
2018-07-07T11:55:39.849Z,36.55
2018-07-07T11:58:07.580Z,36.54
2018-07-07T12:00:35.419Z,36.51
2018-07-07T12:03:03.106Z,36.76
2018-07-07T12:05:30.853Z,36.89
2018-07-07T12:08:13.316Z,36.91
2018-07-07T12:10:27.459Z,37.15
2018-07-07T12:12:55.085Z,36.86
2018-07-07T12:15:22.980Z,37.05
2018-07-07T12:17:50.907Z,37.23
2018-07-07T12:20:18.501Z,37.28
2018-07-07T12:22:46.404Z,36.70
2018-07-07T12:25:14.216Z,36.67
2018-07-07T12:27:41.927Z,36.75
2018-07-07T12:30:09.944Z,36.82
2018-07-07T12:32:37.804Z,36.78
2018-07-07T12:35:05.494Z,37.12
2018-07-07T12:37:33.397Z,36.71
2018-07-07T12:40:01.286Z,37.22
2018-07-07T12:42:29.120Z,37.26
2018-07-07T12:44:56.961Z,37.07
2018-07-07T12:47:24.558Z,36.97
2018-07-07T12:49:52.205Z,36.22
2018-07-07T12:52:19.919Z,36.36
2018-07-07T12:54:47.721Z,36.86
2018-07-07T12:57:15.363Z,36.63
2018-07-07T12:59:43.186Z,36.89
2018-07-07T13:02:10.889Z,36.64
2018-07-07T13:04:38.516Z,36.89
2018-07-07T13:07:06.451Z,36.44
2018-07-07T13:09:34.065Z,37.20
2018-07-07T13:12:01.741Z,37.22
2018-07-07T13:14:29.391Z,36.80
2018-07-07T13:16:56.981Z,37.43
2018-07-07T13:19:24.639Z,37.00
2018-07-07T13:21:52.559Z,37.64
2018-07-07T13:24:20.224Z,37.50
2018-07-07T13:26:47.979Z,37.58
2018-07-07T13:29:15.815Z,37.27
2018-07-07T13:31:43.401Z,37.05
2018-07-07T13:34:11.057Z,37.36
2018-07-07T13:36:38.885Z,37.06
2018-07-07T13:39:07.116Z,37.11
2018-07-07T13:41:34.864Z,37.17
2018-07-07T13:44:03.106Z,37.34
2018-07-07T13:46:30.745Z,38.00
2018-07-07T13:48:58.357Z,38.03
2018-07-07T13:51:26.124Z,37.88
2018-07-07T13:53:53.894Z,37.72
2018-07-07T13:56:21.597Z,37.84
2018-07-07T13:58:49.710Z,37.56
2018-07-07T14:01:17.453Z,37.62
2018-07-07T14:03:45.037Z,37.79
2018-07-07T14:06:12.825Z,37.73
2018-07-07T14:08:40.487Z,37.80
2018-07-07T14:11:08.205Z,38.37
2018-07-07T14:13:35.936Z,38.16
2018-07-07T14:16:03.822Z,38.05
2018-07-07T14:18:31.414Z,38.11
2018-07-07T14:20:59.175Z,37.97
2018-07-07T14:23:26.969Z,38.46
2018-07-07T14:25:54.599Z,37.99
2018-07-07T14:28:22.491Z,38.05
2018-07-07T14:30:50.372Z,38.35
2018-07-07T14:33:18.022Z,38.60
2018-07-07T14:35:45.771Z,38.68
2018-07-07T14:38:13.446Z,38.26
2018-07-07T14:40:50.049Z,38.76
2018-07-07T14:43:18.040Z,38.74
2018-07-07T14:46:20.749Z,38.24
2018-07-07T14:48:48.784Z,38.84
2018-07-07T14:51:16.549Z,39.01
2018-07-07T14:53:44.376Z,38.80
2018-07-07T14:56:12.330Z,39.06
2018-07-07T14:58:39.961Z,38.83
2018-07-07T15:01:07.830Z,39.15
2018-07-07T15:03:35.763Z,38.91
2018-07-07T15:06:03.408Z,39.50
2018-07-07T15:08:31.103Z,39.56
2018-07-07T15:10:59.096Z,39.10
2018-07-07T15:13:26.668Z,38.76
2018-07-07T15:15:54.344Z,39.11
2018-07-07T15:18:22.250Z,39.15
2018-07-07T15:20:49.922Z,39.25
2018-07-07T15:23:17.602Z,39.02
2018-07-07T15:25:45.546Z,39.33
2018-07-07T15:28:13.234Z,39.02
2018-07-07T15:30:40.928Z,38.91
2018-07-07T15:33:08.638Z,39.08
2018-07-07T15:35:36.264Z,39.48
2018-07-07T15:38:03.924Z,39.01
2018-07-07T15:40:31.839Z,39.49
2018-07-07T15:42:59.519Z,39.59
2018-07-07T15:45:27.146Z,39.33
2018-07-07T15:47:55.254Z,39.74
2018-07-07T15:50:22.906Z,39.30
2018-07-07T15:52:50.523Z,39.49
2018-07-07T15:55:18.743Z,39.54
2018-07-07T15:57:46.417Z,40.12
2018-07-07T16:00:14.129Z,40.06
2018-07-07T16:02:42.011Z,39.58
2018-07-07T16:05:09.651Z,39.55
2018-07-07T16:07:37.273Z,39.59
2018-07-07T16:10:05.400Z,40.04
2018-07-07T16:12:33.112Z,40.44
2018-07-07T16:15:00.760Z,39.92
2018-07-07T16:17:28.838Z,39.93
2018-07-07T16:19:56.501Z,40.03
2018-07-07T16:22:24.202Z,40.55
2018-07-07T16:24:51.981Z,40.39
2018-07-07T16:27:19.604Z,39.96
2018-07-07T16:29:47.233Z,39.87
2018-07-07T16:32:15.312Z,39.89
2018-07-07T16:34:43.033Z,39.82
2018-07-07T16:37:10.653Z,39.99
2018-07-07T16:39:38.605Z,40.39
2018-07-07T16:42:06.265Z,40.42
2018-07-07T16:44:34.185Z,39.97
2018-07-07T16:47:02.564Z,40.00
2018-07-07T16:49:30.490Z,40.07
2018-07-07T16:51:59.519Z,40.15
2018-07-07T16:54:28.004Z,40.00
2018-07-07T16:56:55.861Z,40.20
2018-07-07T16:59:23.575Z,40.32
2018-07-07T17:01:52.165Z,40.55
2018-07-07T17:04:20.109Z,41.05
2018-07-07T17:06:48.134Z,40.67
2018-07-07T17:09:16.256Z,40.68
2018-07-07T17:11:44.091Z,40.73
2018-07-07T17:14:12.116Z,40.57
2018-07-07T17:16:40.647Z,41.34
2018-07-07T17:19:08.408Z,41.15
2018-07-07T17:21:36.703Z,41.39
2018-07-07T17:24:04.895Z,41.07
2018-07-07T17:26:33.000Z,41.72
2018-07-07T17:29:00.687Z,41.79
2018-07-07T17:31:28.698Z,41.54
2018-07-07T17:33:57.666Z,41.61
2018-07-07T17:36:25.418Z,41.12
2018-07-07T17:38:53.722Z,41.67
2018-07-07T17:41:21.692Z,41.72
2018-07-07T17:43:49.782Z,41.51
2018-07-07T17:46:17.841Z,41.84
2018-07-07T17:48:45.512Z,41.91
2018-07-07T17:51:13.490Z,41.59
2018-07-07T17:53:41.648Z,41.46
2018-07-07T17:56:09.363Z,42.08
2018-07-07T17:58:37.213Z,42.11
2018-07-07T18:01:05.395Z,42.06
2018-07-07T18:03:33.134Z,41.61
2018-07-07T18:06:00.821Z,41.75
2018-07-07T18:08:28.772Z,42.48
2018-07-07T18:10:56.409Z,41.96
2018-07-07T18:13:24.037Z,42.62
2018-07-07T18:15:51.926Z,42.15
2018-07-07T18:18:19.608Z,42.24
2018-07-07T18:20:47.267Z,42.81
2018-07-07T18:23:16.145Z,42.32
2018-07-07T18:25:43.728Z,42.82
2018-07-07T18:28:11.417Z,42.41
2018-07-07T18:30:39.381Z,42.74
2018-07-07T18:33:07.007Z,42.52
2018-07-07T18:35:34.609Z,42.99
2018-07-07T18:38:02.659Z,42.78
2018-07-07T18:40:30.275Z,42.62
2018-07-07T18:42:57.877Z,42.82
2018-07-07T18:45:25.679Z,42.88
2018-07-07T18:47:53.372Z,43.20
2018-07-07T18:50:21.112Z,42.76
2018-07-07T18:52:49.444Z,42.96
2018-07-07T18:55:17.137Z,43.02
2018-07-07T18:57:44.771Z,43.52
2018-07-07T19:00:12.747Z,43.52
2018-07-07T19:02:40.371Z,43.69
2018-07-07T19:05:08.014Z,43.51
2018-07-07T19:07:35.882Z,43.33
2018-07-07T19:10:03.646Z,43.83
2018-07-07T19:12:31.301Z,43.94
2018-07-07T19:15:04.584Z,43.55
2018-07-07T19:17:32.510Z,43.98
2018-07-07T19:20:00.396Z,44.05
2018-07-07T19:22:33.479Z,43.79
2018-07-07T19:25:06.860Z,44.10
2018-07-07T19:27:34.824Z,44.55
2018-07-07T19:30:02.761Z,44.31
2018-07-07T19:32:36.021Z,43.95
2018-07-07T19:35:09.520Z,44.12
2018-07-07T19:37:37.303Z,44.42
2018-07-07T19:40:05.180Z,44.10
2018-07-07T19:42:32.804Z,43.96
2018-07-07T19:45:00.599Z,43.91
2018-07-07T19:47:28.472Z,44.22
2018-07-07T19:49:56.094Z,44.24
2018-07-07T19:52:23.965Z,43.84
2018-07-07T19:54:51.909Z,43.91
2018-07-07T19:57:19.536Z,43.86
2018-07-07T19:59:47.384Z,44.43
2018-07-07T20:02:15.181Z,44.27
2018-07-07T20:04:42.870Z,44.42
2018-07-07T20:07:10.772Z,43.99
2018-07-07T20:09:38.480Z,43.87
2018-07-07T20:12:06.095Z,43.96
2018-07-07T20:14:33.908Z,43.98
2018-07-07T20:17:10.499Z,44.54
2018-07-07T20:19:54.922Z,44.08
2018-07-07T20:22:22.855Z,44.53
2018-07-07T20:24:50.456Z,44.42
2018-07-07T20:27:23.633Z,44.57
2018-07-07T20:29:51.638Z,44.40
2018-07-07T20:32:24.753Z,44.46
2018-07-07T20:34:52.606Z,43.96
2018-07-07T20:37:20.371Z,44.22
2018-07-07T20:39:48.019Z,44.01
2018-07-07T20:42:15.966Z,44.50
2018-07-07T20:44:43.577Z,44.48
2018-07-07T20:47:11.208Z,43.95
2018-07-07T20:52:02.891Z,44.41
2018-07-07T20:54:30.520Z,44.54
2018-07-07T20:56:59.006Z,44.20
2018-07-07T20:59:26.952Z,44.38
2018-07-07T21:01:54.548Z,44.33
2018-07-07T21:04:22.202Z,43.89
2018-07-07T21:06:50.132Z,44.05
2018-07-07T21:09:17.782Z,44.11
2018-07-07T21:11:45.497Z,44.26
2018-07-07T21:14:13.342Z,44.33
2018-07-07T21:16:40.997Z,43.83
2018-07-07T21:19:08.625Z,44.39
2018-07-07T21:21:36.756Z,43.79
2018-07-07T21:24:04.411Z,44.18
2018-07-07T21:26:32.021Z,44.06
2018-07-07T21:29:00.190Z,43.97
2018-07-07T21:31:27.812Z,44.11
2018-07-07T21:33:55.644Z,43.52
2018-07-07T21:36:23.617Z,43.64
2018-07-07T21:38:51.223Z,43.99
2018-07-07T21:41:18.854Z,43.43
2018-07-07T21:43:47.890Z,43.99
2018-07-07T21:46:15.525Z,43.90
2018-07-07T21:48:43.181Z,43.59
2018-07-07T21:51:11.237Z,43.46
2018-07-07T21:53:38.961Z,43.42
2018-07-07T21:56:06.861Z,43.10
2018-07-07T21:58:35.035Z,43.47
2018-07-07T22:01:14.615Z,43.53
2018-07-07T22:03:48.088Z,43.02
2018-07-07T22:06:22.339Z,42.92
2018-07-07T22:08:50.210Z,43.27
2018-07-07T22:11:17.893Z,43.02
2018-07-07T22:13:45.749Z,43.38
2018-07-07T22:16:13.622Z,43.32
2018-07-07T22:18:41.320Z,43.34
2018-07-07T22:21:20.088Z,42.97
2018-07-07T22:23:47.803Z,42.98
2018-07-07T22:26:15.353Z,43.27
2018-07-07T22:28:43.049Z,42.79
2018-07-07T22:31:10.975Z,42.74
2018-07-07T22:33:38.595Z,43.39
2018-07-07T22:36:11.821Z,43.23
2018-07-07T22:38:45.280Z,42.93
2018-07-07T22:41:13.186Z,42.94
2018-07-07T22:43:40.887Z,42.67
2018-07-07T22:46:09.146Z,43.20
2018-07-07T22:48:36.925Z,42.68
2018-07-07T22:51:04.809Z,42.80
2018-07-07T22:53:32.483Z,43.19
2018-07-07T22:56:00.363Z,42.89
2018-07-07T22:58:28.202Z,43.02
2018-07-07T23:00:56.074Z,43.03
2018-07-07T23:03:23.981Z,42.90
2018-07-07T23:05:51.708Z,42.55
2018-07-07T23:08:19.428Z,42.67
2018-07-07T23:10:47.254Z,42.88
2018-07-07T23:13:15.141Z,42.70
2018-07-07T23:15:42.830Z,43.15
2018-07-07T23:18:10.747Z,42.58
2018-07-07T23:20:38.599Z,43.09
2018-07-07T23:23:06.267Z,42.96
2018-07-07T23:25:34.007Z,42.97
2018-07-07T23:28:02.026Z,42.97
2018-07-07T23:30:29.635Z,42.93
2018-07-07T23:32:57.550Z,42.99
2018-07-07T23:35:25.557Z,42.93
2018-07-07T23:37:53.270Z,42.70
2018-07-07T23:40:21.089Z,42.86
2018-07-07T23:42:48.969Z,42.91
2018-07-07T23:45:16.603Z,43.39
2018-07-07T23:47:44.325Z,43.27
2018-07-07T23:50:12.169Z,43.56
2018-07-07T23:52:39.817Z,42.94
2018-07-07T23:55:07.786Z,43.32
2018-07-07T23:57:35.599Z,43.00
